createdAt,value
2018-07-31T00:03:00.572Z,52.13
2018-07-31T00:08:02.758Z,52.17
2018-07-31T00:13:04.951Z,51.68
2018-07-31T00:18:07.114Z,51.43
2018-07-31T00:23:09.234Z,51.32
2018-07-31T00:28:11.417Z,51.38
2018-07-31T00:33:13.569Z,51.48
2018-07-31T00:38:15.761Z,51.21
2018-07-31T00:43:17.941Z,50.67
2018-07-31T00:48:20.125Z,50.58
2018-07-31T00:53:22.306Z,50.57
2018-07-31T00:58:24.430Z,50.45
2018-07-31T01:03:26.558Z,50.46
2018-07-31T01:08:28.706Z,50.56
2018-07-31T01:13:30.878Z,50.54
2018-07-31T01:18:33.034Z,49.73
2018-07-31T01:23:35.165Z,49.19
2018-07-31T01:28:37.342Z,49.77
2018-07-31T01:33:39.482Z,49.10
2018-07-31T01:38:41.662Z,49.04
2018-07-31T01:43:43.794Z,49.10
2018-07-31T01:48:45.910Z,49.79
2018-07-31T01:53:48.058Z,49.32
2018-07-31T01:58:50.183Z,49.13
2018-07-31T02:03:52.304Z,49.25
2018-07-31T02:08:55.124Z,49.63
2018-07-31T02:13:57.247Z,50.17
2018-07-31T02:18:59.396Z,49.55
2018-07-31T02:24:01.571Z,49.25
2018-07-31T02:29:03.782Z,49.24
2018-07-31T02:34:06.070Z,48.51
2018-07-31T02:39:08.210Z,48.33
2018-07-31T02:44:10.355Z,48.17
2018-07-31T02:49:12.543Z,48.21
2018-07-31T02:54:14.667Z,47.50
2018-07-31T02:59:16.811Z,47.09
2018-07-31T03:04:18.940Z,47.87
2018-07-31T03:09:21.059Z,46.76
2018-07-31T03:14:23.182Z,47.87
2018-07-31T03:19:25.333Z,46.70
2018-07-31T03:24:27.462Z,46.33
2018-07-31T03:29:29.632Z,45.65
2018-07-31T03:34:31.775Z,45.46
2018-07-31T03:39:33.913Z,46.34
2018-07-31T03:44:36.045Z,45.38
2018-07-31T03:49:38.169Z,46.12
2018-07-31T03:54:40.311Z,44.83
2018-07-31T03:59:42.638Z,45.81
2018-07-31T04:04:44.828Z,45.90
2018-07-31T04:09:46.969Z,45.54
2018-07-31T04:14:49.095Z,46.46
2018-07-31T04:19:51.231Z,45.37
2018-07-31T04:24:53.590Z,45.90
2018-07-31T04:29:55.770Z,45.31
2018-07-31T04:34:57.904Z,44.90
2018-07-31T04:40:00.034Z,45.51
2018-07-31T04:45:02.262Z,44.92
2018-07-31T04:50:04.427Z,44.85
2018-07-31T04:55:06.611Z,45.63
2018-07-31T05:00:09.004Z,43.90
2018-07-31T05:05:11.176Z,44.79
2018-07-31T05:10:13.332Z,44.10
2018-07-31T05:15:15.485Z,44.32
2018-07-31T05:20:17.654Z,44.54
2018-07-31T05:25:19.859Z,44.26
2018-07-31T05:30:22.047Z,44.78
2018-07-31T05:35:24.182Z,44.78
2018-07-31T05:40:26.327Z,44.65
2018-07-31T05:45:28.489Z,44.84
2018-07-31T05:50:30.624Z,43.83
2018-07-31T05:55:32.761Z,44.73
2018-07-31T06:00:34.914Z,44.20
2018-07-31T06:05:37.061Z,43.83
2018-07-31T06:10:39.223Z,43.11
2018-07-31T06:15:41.339Z,43.51
2018-07-31T06:20:43.516Z,43.39
2018-07-31T06:25:45.647Z,43.66
2018-07-31T06:30:47.859Z,43.27
2018-07-31T06:35:50.041Z,43.17
2018-07-31T06:40:52.203Z,43.12
2018-07-31T06:45:54.423Z,43.36
2018-07-31T06:50:56.605Z,43.63
2018-07-31T06:55:58.770Z,41.95
2018-07-31T07:01:01.001Z,42.04
2018-07-31T07:06:03.243Z,42.42
2018-07-31T07:11:05.457Z,42.31
2018-07-31T07:16:07.641Z,42.23
2018-07-31T07:21:09.834Z,41.77
2018-07-31T07:26:12.009Z,41.75
2018-07-31T07:31:14.293Z,41.74
2018-07-31T07:36:16.460Z,41.09
2018-07-31T07:41:18.659Z,41.23
2018-07-31T07:46:20.967Z,39.96
2018-07-31T07:51:23.182Z,39.32
2018-07-31T07:56:25.539Z,39.41
2018-07-31T08:01:27.785Z,39.58
2018-07-31T08:06:29.964Z,40.33
2018-07-31T08:11:32.168Z,40.72
2018-07-31T08:16:35.179Z,40.99
2018-07-31T08:21:37.442Z,40.25
2018-07-31T08:26:39.648Z,40.52
2018-07-31T08:31:41.932Z,40.26
2018-07-31T08:36:44.133Z,40.67
2018-07-31T08:41:46.373Z,40.02
2018-07-31T08:46:48.572Z,39.57
2018-07-31T08:51:50.773Z,39.34
2018-07-31T08:56:53.242Z,39.33
2018-07-31T09:01:55.431Z,38.59
2018-07-31T09:06:57.616Z,38.22
2018-07-31T09:11:59.809Z,38.14
2018-07-31T09:17:02.017Z,37.67
2018-07-31T09:22:04.182Z,38.49
2018-07-31T09:27:07.682Z,37.60
2018-07-31T09:32:09.926Z,38.00
2018-07-31T09:37:12.102Z,37.72
2018-07-31T09:42:14.310Z,37.68
2018-07-31T09:47:16.511Z,37.14
2018-07-31T09:52:18.689Z,36.96
2018-07-31T09:57:20.874Z,36.90
2018-07-31T10:02:23.079Z,35.99
2018-07-31T10:07:25.304Z,35.37
2018-07-31T10:12:27.552Z,36.04
2018-07-31T10:17:29.798Z,36.49
2018-07-31T10:22:38.850Z,36.11
2018-07-31T10:27:41.037Z,35.65
2018-07-31T10:32:43.254Z,36.46
2018-07-31T10:37:45.480Z,35.34
2018-07-31T10:42:47.692Z,36.17
2018-07-31T10:47:49.878Z,35.88
2018-07-31T10:52:52.089Z,34.71
2018-07-31T10:57:54.393Z,35.01
2018-07-31T11:02:56.620Z,35.00
2018-07-31T11:07:58.820Z,35.37
2018-07-31T11:13:01.001Z,35.16
2018-07-31T11:18:03.199Z,35.49
2018-07-31T11:23:05.453Z,34.45
2018-07-31T11:28:08.261Z,33.75
2018-07-31T11:33:10.592Z,34.25
2018-07-31T11:38:13.355Z,33.85
2018-07-31T11:43:15.624Z,34.61
2018-07-31T11:48:17.846Z,34.80
2018-07-31T11:53:20.054Z,34.16
2018-07-31T11:58:22.282Z,34.21
2018-07-31T12:03:24.470Z,34.83
2018-07-31T12:08:27.135Z,34.86
2018-07-31T12:13:29.526Z,35.49
2018-07-31T12:18:31.751Z,35.28
2018-07-31T12:23:33.926Z,35.63
2018-07-31T12:28:36.143Z,34.41
2018-07-31T12:33:38.323Z,35.18
2018-07-31T12:38:40.581Z,34.92
2018-07-31T12:43:42.775Z,34.00
2018-07-31T12:48:45.031Z,34.51
2018-07-31T12:53:47.229Z,33.83
2018-07-31T12:58:49.510Z,34.92
2018-07-31T13:03:52.081Z,34.82
2018-07-31T13:08:54.252Z,35.55
2018-07-31T13:13:56.434Z,36.59
2018-07-31T13:18:58.998Z,35.16
2018-07-31T13:24:01.127Z,34.34
2018-07-31T13:29:03.344Z,34.89
2018-07-31T13:34:05.593Z,34.82
2018-07-31T13:39:08.694Z,33.35
2018-07-31T13:44:11.049Z,34.31
2018-07-31T13:49:13.150Z,33.46
2018-07-31T13:54:15.336Z,33.55
2018-07-31T13:59:17.580Z,33.61
2018-07-31T14:04:19.814Z,33.65
2018-07-31T14:09:22.022Z,32.99
2018-07-31T14:14:24.230Z,32.91
2018-07-31T14:19:26.403Z,31.40
2018-07-31T14:24:28.647Z,29.86
2018-07-31T14:29:30.822Z,31.58
2018-07-31T14:34:35.139Z,31.60
2018-07-31T14:39:37.363Z,31.51
2018-07-31T14:44:39.569Z,31.44
2018-07-31T14:49:41.749Z,32.02
2018-07-31T14:54:43.952Z,33.38
2018-07-31T14:59:46.151Z,32.25
2018-07-31T15:04:48.354Z,30.26
2018-07-31T15:09:50.569Z,29.68
2018-07-31T15:14:52.740Z,29.38
2018-07-31T15:19:54.946Z,29.21
2018-07-31T15:24:57.157Z,29.07
2018-07-31T15:29:59.373Z,29.76
2018-07-31T15:35:01.621Z,31.50
2018-07-31T15:40:04.173Z,31.77
2018-07-31T15:45:06.395Z,31.95
2018-07-31T15:50:08.613Z,31.92
2018-07-31T15:55:10.847Z,31.11
2018-07-31T16:00:13.131Z,30.26
2018-07-31T16:05:15.315Z,30.35
2018-07-31T16:10:17.515Z,30.01
2018-07-31T16:15:19.740Z,29.70
2018-07-31T16:20:22.048Z,27.91
2018-07-31T16:25:24.235Z,28.97
2018-07-31T16:30:26.431Z,28.70
2018-07-31T16:35:28.893Z,27.58
2018-07-31T16:40:31.131Z,28.28
2018-07-31T16:45:33.371Z,29.58
2018-07-31T16:50:35.558Z,30.31
2018-07-31T16:55:37.834Z,32.49
2018-07-31T17:00:40.644Z,32.70
2018-07-31T17:05:42.853Z,32.09
2018-07-31T17:10:45.096Z,33.55
2018-07-31T17:15:47.378Z,34.82
2018-07-31T17:20:49.648Z,34.78
2018-07-31T17:25:51.857Z,35.55
2018-07-31T17:30:54.085Z,35.33
2018-07-31T17:35:56.428Z,37.00
2018-07-31T17:40:58.617Z,36.28
2018-07-31T17:46:00.865Z,37.50
2018-07-31T17:51:03.067Z,39.15
2018-07-31T17:56:05.368Z,39.13
2018-07-31T18:01:07.625Z,41.44
2018-07-31T18:06:09.850Z,41.67
2018-07-31T18:11:12.090Z,42.26
2018-07-31T18:16:14.392Z,42.39
2018-07-31T18:21:16.624Z,43.08
2018-07-31T18:26:18.915Z,42.83
2018-07-31T18:31:21.241Z,44.00
2018-07-31T18:36:23.555Z,44.46
2018-07-31T18:41:26.481Z,44.64
2018-07-31T18:46:28.619Z,45.24
2018-07-31T18:51:30.824Z,45.09
2018-07-31T18:56:33.105Z,45.42
2018-07-31T19:01:35.379Z,45.95
2018-07-31T19:06:37.563Z,45.72
2018-07-31T19:11:40.968Z,46.54
2018-07-31T19:16:43.144Z,46.27
2018-07-31T19:21:45.314Z,46.67
2018-07-31T19:26:47.522Z,46.67
2018-07-31T19:31:49.751Z,46.84
2018-07-31T19:36:52.011Z,47.01
2018-07-31T19:41:54.389Z,46.25
2018-07-31T21:39:12.974Z,53.47
2018-07-31T21:44:15.245Z,54.20
2018-07-31T21:49:17.432Z,53.41
2018-07-31T21:54:19.624Z,53.15
2018-07-31T21:59:21.897Z,53.06
2018-07-31T22:04:24.132Z,53.33
2018-07-31T22:09:29.686Z,53.10
2018-07-31T22:14:31.919Z,52.91
2018-07-31T22:19:34.240Z,53.46
2018-07-31T22:24:36.451Z,53.57
2018-07-31T22:29:38.658Z,53.86
2018-07-31T22:34:40.823Z,53.51
2018-07-31T22:39:43.034Z,53.71
2018-07-31T22:44:45.293Z,54.25
2018-07-31T22:49:47.514Z,53.59
2018-07-31T22:54:49.692Z,53.33
2018-07-31T22:59:51.895Z,53.11
2018-07-31T23:04:54.069Z,53.37
2018-07-31T23:09:56.744Z,53.41
2018-07-31T23:14:59.958Z,53.74
2018-07-31T23:20:03.353Z,53.57
2018-07-31T23:25:06.171Z,53.17
2018-07-31T23:30:08.742Z,53.76
2018-07-31T23:35:10.951Z,53.59
2018-07-31T23:40:13.130Z,54.17
2018-07-31T23:45:15.323Z,54.19
2018-07-31T23:50:17.515Z,53.79
2018-07-31T23:55:19.891Z,54.05
